Pomona, MO

5:37 PM CDT on September 03, 2015 (GMT -0500)
West Plains Municipal | | Change Station
CLOSE
Current Station
Airport
Location: West Plains,
Elevation: 1227 ft
Nearby Weather Stations

Elev 1227 ft 36.88 °N, 91.91 °W | Updated 44 minutes ago

Scattered Clouds
Scattered Clouds
88 °F
Feels Like 90 °F
N
5
Wind Variable Wind from SSW

Today
High -- | Low -- °F
--% Chance of Precip.
Yesterday
High -- | Low -- °F
Precip. -- in
6:39 AM 7:33 PM
Waning Gibbous, 66% visible
Pressure 29.94 in
Visibility 10.0 miles
Clouds Scattered Clouds 5000 ft
Heat Index 90 °F
Dew Point 65 °F
Humidity 46%
Rainfall 0.00 in
Snow Depth Not available.
UV 3 out of 12
Pollen 10.80 out of 12
Air Quality Not available.
Flu Activity Not available.
METAR KUNO 032153Z AUTO 20004KT 10SM SCT050 31/18 A2998 RMK AO2 SLP138 T03110183
Pressure 29.94 in
Visibility 10.0 miles
Clouds Scattered Clouds 5000 ft
Heat Index 90 °F
Dew Point 65 °F
Humidity 46%
Rainfall 0.00 in
Snow Depth Not available.
UV 3 out of 12
Pollen 10.80 out of 12
Air Quality Not available.
Flu Activity Not available.
METAR KUNO 032153Z AUTO 20004KT 10SM SCT050 31/18 A2998 RMK AO2 SLP138 T03110183

10-Day Weather Forecast

×

Almanac

Astronomy

Sep. 03, 2015 Rise Set
Actual Time
Civil Twilight
Nautical Twilight
Astronomical Twilight
Moon
Length of Visible Light
Length of Day
Tomorrow will be .
, % of the Moon is Illuminated

Today's Extremes

State Highs State Lows

Community

WunderPhotos

Upload Photos

1,852,049 photos uploaded!

WunderBlogs® & News

Nearby

Air Quality

  Air Quality AQ Index Pollutant
Not available.

Snow Depth

Station Depth Elevation

Earthquake Activity

City Distance Mag. Time & Date
Minimum magnitude displayed is 2.5.

Coastal Water Temperatures

Place Temperature

Stations

Nearby Weather Stations

Station Location Temp. Windchill Dew Point Humidity Wind Precip. Elev Updated Type